Latest Weather Observations for Mount Read

IDT60801

Issued at 11:05 am EDT Tuesday 25 November 2014 (issued every 30 minutes, with the page automatically refreshed every 10 minutes)

About weather observations | Map of weather stations | Latest weather observations for TAS | Other Formats
Station Details ID: 097085 Name: MOUNT READ Lat: -41.84 Lon: 145.54 Height: 1119.5 m
Data from the previous 72 hours. | See also: Recent months at Mount Read
Date/Time
EDT
Temp
°C
App
Temp
°C
Dew
Point
Rel
Hum
%
Delta-T
°C
Wind Press
QNH
hPa
Press
MSL
hPa
Rain
since 9 am
mm
Dir
 
Spd
km/h
Gust
km/h
Spd
kts
Gust
kts
25/11:04am 3.4 -5.1 3.3 99 0.0 WSW 37 59 20 32 1009.8 1009.4 1.2
25/11:00am 3.4 -5.1 3.3 99 0.0 WSW 37 52 20 28 1010.0 1009.6 1.0
25/10:45am 3.3 -4.2 3.2 99 0.0 WSW 32 50 17 27 1009.8 1009.4 1.0
25/10:30am 3.4 -4.3 3.3 99 0.0 WSW 33 50 18 27 1009.9 1009.5 0.6
25/10:16am 3.0 -4.6 2.9 99 0.0 WSW 32 52 17 28 1009.8 1009.4 0.6
25/10:00am 3.5 -5.0 3.4 99 0.0 WSW 37 52 20 28 1009.6 1009.3 0.2
25/09:30am 2.9 -7.8 2.8 99 0.0 WSW 48 63 26 34 1009.1 1008.7 0.2
25/09:00am 2.3 -6.4 2.2 99 0.0 WSW 37 54 20 29 1008.8 1008.3 41.8
25/08:56am 2.3 -6.0 2.2 99 0.0 WSW 35 54 19 29 1008.8 1008.3 41.8
25/08:30am 2.6 -7.2 2.5 99 0.0 WSW 43 59 23 32 1008.3 1007.9 41.0
25/08:12am 2.1 -9.5 2.0 99 0.0 WSW 52 72 28 39 1007.7 1007.3 41.0
25/08:00am 2.3 -9.6 2.2 99 0.0 WSW 54 69 29 37 1007.6 1007.2 41.0
25/07:30am 2.5 -8.2 2.4 99 0.0 SW 48 69 26 37 1007.0 1006.5 41.0
25/07:21am 2.4 -8.0 2.3 99 0.0 SW 46 67 25 36 1006.9 1006.4 41.0
25/07:00am 2.2 -8.6 2.1 99 0.0 SW 48 67 26 36 1006.7 1006.3 41.0
25/06:40am 2.1 -8.3 2.0 99 0.0 WSW 46 67 25 36 1006.3 1005.8 40.4
25/06:30am 2.6 -8.5 2.5 99 0.0 WSW 50 65 27 35 1006.5 1006.1 40.0
25/06:00am 2.5 -7.5 2.4 99 0.0 WSW 44 63 24 34 1006.1 1005.6 40.0
25/05:35am 1.5 -9.4 1.4 99 0.0 WSW 48 74 26 40 1005.4 1004.9 39.2
25/05:30am 2.7 -8.0 2.6 99 0.0 WSW 48 65 26 35 1005.5 1005.0 38.2
25/05:00am 2.4 -8.3 2.3 99 0.0 WSW 48 72 26 39 1004.7 1004.2 37.0
25/04:56am 2.6 -7.2 2.5 99 0.0 WSW 43 63 23 34 1004.8 1004.3 37.0
25/04:51am 2.8 -6.9 2.7 99 0.0 WSW 43 52 23 28 1005.3 1004.8 37.0
25/04:30am 2.4 -10.8 2.3 99 0.0 WSW 61 80 33 43 1004.5 1004.0 36.8
25/04:29am 2.4 -10.8 2.3 99 0.0 WSW 61 80 33 43 1004.7 1004.2 36.8
25/04:26am 2.8 -6.2 2.7 99 0.0 WSW 39 59 21 32 1005.1 1004.6 36.8
25/04:00am 2.4 -8.7 2.3 99 0.0 WSW 50 65 27 35 1004.7 1004.2 35.4
25/03:44am 2.6 -7.7 2.5 99 0.0 W 46 65 25 35 1004.7 1004.2 34.0
25/03:30am 1.6 -8.9 1.5 99 0.0 WSW 46 65 25 35 1004.2 1003.6 32.8
25/03:26am 2.4 -7.0 2.3 99 0.0 SW 41 57 22 31 1004.7 1004.2 32.2
25/03:00am 3.2 -7.4 3.1 99 0.0 W 48 67 26 36 1004.2 1003.6 30.2
25/02:33am 2.9 -7.4 2.8 99 0.0 WSW 46 67 25 36 1004.3 1003.8 30.0
25/02:30am 3.0 -6.7 2.9 99 0.0 WSW 43 61 23 33 1004.5 1004.0 30.0
25/02:00am 3.0 -9.2 2.9 99 0.0 W 56 76 30 41 1004.2 1003.6 29.8
25/01:57am 3.0 -9.2 2.9 99 0.0 WSW 56 76 30 41 1004.2 1003.6 29.8
25/01:56am 3.0 -9.2 2.9 99 0.0 WSW 56 70 30 38 1004.2 1003.6 29.8
25/01:30am 3.1 -5.0 3.0 99 0.0 WNW 35 70 19 38 1004.4 1003.9 27.0
25/01:00am 2.7 -6.3 2.6 99 0.0 WNW 39 61 21 33 1004.5 1004.0 26.8
25/12:59am 2.7 -6.3 2.6 99 0.0 W 39 57 21 31 1004.5 1004.0 26.8
25/12:30am 2.1 -7.4 2.0 99 0.0 W 41 56 22 30 1004.7 1004.2 26.6
25/12:24am 2.6 -8.1 2.5 99 0.0 W 48 69 26 37 1005.0 1004.4 26.2
25/12:20am 2.4 -10.1 2.3 99 0.0 W 57 69 31 37 1004.6 1004.1 26.0
25/12:00am 2.7 -5.5 2.6 99 0.0 WNW 35 61 19 33 1005.0 1004.4 25.6
 
Date/Time
EDT
Temp
°C
App
Temp
°C
Dew
Point
Rel
Hum
%
Delta-T
°C
Wind Press
QNH
hPa
Press
MSL
hPa
Rain
since 9 am
mm
Dir
 
Spd
km/h
Gust
km/h
Spd
kts
Gust
kts
24/11:37pm 3.0 -5.9 2.9 99 0.0 W 39 61 21 33 1005.0 1004.4 25.4
24/11:30pm 3.0 -5.2 2.9 99 0.0 W 35 50 19 27 1005.1 1004.6 25.2
24/11:09pm 2.9 -4.9 2.8 99 0.0 W 33 59 18 32 1005.0 1004.4 25.0
24/11:00pm 3.0 -4.8 2.9 99 0.0 WNW 33 44 18 24 1005.3 1004.8 24.8
24/10:53pm 2.9 -5.7 2.8 99 0.0 W 37 56 20 30 1005.3 1004.8 24.6
24/10:30pm 3.0 -5.5 2.9 99 0.0 W 37 52 20 28 1005.6 1005.1 24.4
24/10:25pm 2.8 -6.2 2.7 99 0.0 W 39 57 21 31 1005.5 1005.0 24.4
24/10:17pm 3.1 -6.2 3.0 99 0.0 W 41 57 22 31 1005.3 1004.8 24.4
24/10:01pm 3.2 -4.4 3.1 99 0.0 NW 32 52 17 28 1005.2 1004.7 24.4
24/10:00pm 3.2 -3.6 3.1 99 0.0 NNW 28 46 15 25 1005.3 1004.8 24.4
24/09:31pm 3.0 -4.8 2.9 99 0.0 W 33 54 18 29 1005.2 1004.7 24.2
24/09:30pm 3.0 -4.6 2.9 99 0.0 W 32 50 17 27 1005.3 1004.8 24.2
24/09:00pm 3.1 -4.7 3.0 99 0.0 W 33 46 18 25 1005.2 1004.7 24.0
24/08:30pm 3.1 -5.4 3.0 99 0.0 W 37 52 20 28 1004.7 1004.2 24.0
24/08:00pm 3.5 -3.2 3.4 99 0.0 W 28 41 15 22 1004.6 1004.1 24.0
24/07:30pm 3.3 -2.7 3.2 99 0.0 W 24 35 13 19 1004.4 1003.9 23.8
24/07:00pm 3.5 -2.5 3.4 99 0.0 W 24 37 13 20 1004.3 1003.8 23.8
24/06:30pm 3.4 -2.6 3.3 99 0.0 W 24 35 13 19 1004.1 1003.5 23.8
24/06:07pm 3.9 -3.2 3.8 99 0.0 W 30 48 16 26 1003.8 1003.3 23.8
24/06:00pm 3.7 -4.7 3.6 99 0.0 W 37 50 20 27 1004.0 1003.4 23.8
24/05:30pm 5.0 -3.6 4.9 99 0.0 WNW 39 54 21 29 1004.1 1003.5 23.8
24/05:00pm 5.9 -2.1 5.8 99 0.0 WNW 37 61 20 33 1004.2 1003.6 23.2
24/04:48pm 6.1 -0.1 6.0 99 0.0 WNW 28 48 15 26 1004.1 1003.5 23.0
24/04:30pm 6.3 1.6 6.2 99 0.0 NNW 20 32 11 17 1004.4 1003.9 21.2
24/04:00pm 6.3 0.9 6.2 99 0.0 N 24 33 13 18 1004.3 1003.8 18.2
24/03:30pm 6.3 1.8 6.2 99 0.0 NNW 19 28 10 15 1004.6 1004.1 16.6
24/03:00pm 6.3 0.9 6.2 99 0.0 NNW 24 35 13 19 1005.0 1004.4 15.4
24/02:30pm 6.2 0.7 6.1 99 0.0 NNW 24 35 13 19 1005.3 1004.8 13.2
24/02:00pm 5.8 -0.5 5.7 99 0.0 NNW 28 39 15 21 1005.6 1005.1 11.0
24/01:30pm 5.8 0.3 5.7 99 0.0 N 24 39 13 21 1005.6 1005.1 6.2
24/01:00pm 5.5 -0.9 5.4 99 0.0 N 28 35 15 19 1006.2 1005.7 4.4
24/12:30pm 5.4 -1.4 5.3 99 0.0 N 30 39 16 21 1006.6 1006.2 4.0
24/12:00pm 5.4 -1.7 5.3 99 0.0 N 32 41 17 22 1007.0 1006.5 3.8
24/11:30am 5.2 -0.5 5.1 99 0.0 N 24 35 13 19 1007.9 1007.4 2.8
24/11:00am 5.0 -0.7 4.9 99 0.0 N 24 32 13 17 1008.2 1007.8 1.6
24/10:30am 5.1 -1.0 5.0 99 0.0 N 26 33 14 18 1008.3 1007.9 1.6
24/10:00am 5.1 -0.6 5.0 99 0.0 N 24 30 13 16 1008.9 1008.5 1.2
24/09:30am 4.9 -1.2 4.8 99 0.0 N 26 33 14 18 1009.3 1008.9 0.8
24/09:00am 4.9 -2.0 4.8 99 0.0 N 30 37 16 20 1009.5 1009.1 5.8
24/08:30am 4.8 -2.1 4.7 99 0.0 N 30 37 16 20 1009.4 1009.0 4.6
24/08:00am 4.7 -2.2 4.6 99 0.0 N 30 39 16 21 1009.4 1009.0 2.4
24/07:30am 4.7 -2.2 4.4 98 0.1 N 30 37 16 20 1009.4 1009.0 0.8
24/07:00am 5.2 -1.9 3.4 88 0.8 N 30 39 16 21 1010.3 1009.9 0.2
24/06:30am 5.2 -2.4 3.1 86 0.9 N 32 39 17 21 1009.1 1008.7 0.0
24/06:00am 5.2 -1.7 2.6 83 1.1 N 28 39 15 21 1009.4 1009.0 0.0
24/05:30am 5.3 -2.9 2.7 83 1.1 N 35 41 19 22 1008.8 1008.3 0.0
24/05:00am 5.4 -2.8 2.6 82 1.2 N 35 43 19 23 1009.3 1008.9 0.0
24/04:30am 5.7 -1.6 2.5 80 1.4 N 30 41 16 22 1010.0 1009.6 0.0
24/04:00am 5.8 -1.5 2.6 80 1.4 N 30 35 16 19 1010.2 1009.8 0.0
24/03:30am 5.1 -1.8 2.3 82 1.2 N 28 35 15 19 1010.3 1009.9 0.0
24/03:00am 5.5 -1.1 2.3 80 1.4 N 26 32 14 17 1010.5 1010.2 0.0
24/02:30am 5.3 -0.9 2.3 81 1.3 N 24 26 13 14 1010.8 1010.4 0.0
24/02:00am 5.2 0.0 2.4 82 1.2 N 19 22 10 12 1011.0 1010.6 0.0
24/01:30am 5.1 0.2 2.1 81 1.3 N 17 20 9 11 1011.2 1010.9 0.0
24/01:00am 5.0 0.5 2.0 81 1.3 N 15 19 8 10 1011.6 1011.3 0.0
24/12:30am 5.2 1.1 2.0 80 1.4 NNW 13 17 7 9 1011.9 1011.5 0.0
24/12:00am 5.1 1.4 2.1 81 1.3 NNW 11 17 6 9 1012.1 1011.8 0.0
 
Date/Time
EDT
Temp
°C
App
Temp
°C
Dew
Point
Rel
Hum
%
Delta-T
°C
Wind Press
QNH
hPa
Press
MSL
hPa
Rain
since 9 am
mm
Dir
 
Spd
km/h
Gust
km/h
Spd
kts
Gust
kts
23/11:30pm 5.7 0.1 1.2 73 1.9 NW 20 26 11 14 1012.3 1012.0 0.0
23/11:00pm 5.7 0.3 1.1 72 2.0 NW 19 28 10 15 1012.3 1012.0 0.0
23/10:30pm 5.7 0.4 1.8 76 1.7 NW 19 26 10 14 1012.7 1012.3 0.0
23/10:00pm 5.6 0.1 2.1 78 1.5 NW 20 28 11 15 1013.0 1012.7 0.0
23/09:30pm 5.4 1.2 3.6 88 0.8 NW 15 20 8 11 1013.2 1012.9 0.0
23/09:00pm 5.8 1.6 3.8 87 0.9 NW 15 24 8 13 1013.2 1012.9 0.0
23/08:30pm 6.0 1.0 3.8 86 1.0 WNW 19 24 10 13 1013.0 1012.7 0.0
23/08:00pm 6.6 1.4 3.6 81 1.4 WNW 20 26 11 14 1013.0 1012.7 0.0
23/07:30pm 7.2 2.1 3.3 76 1.8 WNW 19 28 10 15 1012.9 1012.6 0.0
23/07:00pm 8.2 2.6 3.5 72 2.2 WNW 22 30 12 16 1012.8 1012.5 0.0
23/06:30pm 8.8 3.8 4.6 75 2.0 WNW 20 30 11 16 1012.5 1012.2 0.0
23/06:00pm 8.8 3.8 4.6 75 2.0 WNW 20 30 11 16 1012.3 1012.0 0.0
23/05:30pm 10.0 4.8 3.3 63 3.1 WNW 20 35 11 19 1012.1 1011.8 0.0
23/05:00pm 10.2 4.9 2.8 60 3.4 WNW 20 30 11 16 1011.6 1011.3 0.0
23/04:30pm 11.0 6.0 3.5 60 3.5 WNW 19 30 10 16 1011.5 1011.2 0.0
23/04:00pm 10.9 6.8 4.1 63 3.2 NW 15 28 8 15 1011.4 1011.1 0.0
23/03:30pm 10.7 5.5 3.7 62 3.3 NNW 20 32 11 17 1011.4 1011.1 0.0
23/03:00pm 11.4 6.0 4.4 62 3.4 WNW 22 32 12 17 1011.4 1011.1 0.0
23/02:30pm 11.4 7.0 4.6 63 3.3 WNW 17 30 9 16 1011.3 1011.0 0.0
23/02:00pm 11.5 6.9 5.4 66 3.0 WNW 19 32 10 17 1011.4 1011.1 0.0
23/01:30pm 11.2 6.8 6.7 74 2.3 WNW 19 32 10 17 1011.5 1011.2 0.0
23/01:00pm 9.7 4.9 5.7 76 2.0 WNW 20 32 11 17 1011.4 1011.1 0.0
23/12:30pm 10.2 7.9 7.4 83 1.4 NW 9 28 5 15 1011.5 1011.2 0.0
23/12:00pm 9.6 5.7 7.2 85 1.2 WNW 17 28 9 15 1011.4 1011.1 0.0
23/11:30am 8.5 4.6 7.0 90 0.7 NW 17 28 9 15 1011.3 1011.0 0.0
23/11:00am 7.3 3.3 6.6 95 0.3 WNW 17 33 9 18 1011.2 1010.9 0.0
23/10:30am 6.3 3.3 6.2 99 0.0 NW 11 24 6 13 1011.1 1010.7 0.0
23/10:00am 6.0 3.0 5.9 99 0.0 WNW 11 19 6 10 1010.9 1010.5 0.0
23/09:30am 5.0 1.8 4.9 99 0.0 WNW 11 24 6 13 1010.6 1010.3 0.0
23/09:00am 5.2 0.9 5.1 99 0.0 W 17 26 9 14 1010.3 1009.9 2.8
23/08:30am 4.9 1.3 4.8 99 0.0 NW 13 20 7 11 1009.8 1009.4 2.8
23/08:00am 4.5 -0.3 4.4 99 0.0 W 19 24 10 13 1009.4 1009.0 2.8
23/07:30am 4.3 -0.6 4.2 99 0.0 WNW 19 30 10 16 1009.0 1008.6 2.8
23/07:00am 3.8 -1.2 3.7 99 0.0 W 19 24 10 13 1008.5 1008.1 2.8
23/06:30am 4.0 -1.5 3.9 99 0.0 W 22 30 12 16 1008.3 1007.9 2.8
23/06:00am 4.0 -1.9 3.9 99 0.0 W 24 32 13 17 1007.6 1007.2 2.8
23/05:30am 4.3 -1.2 4.2 99 0.0 W 22 33 12 18 1007.5 1007.1 2.8
23/05:00am 4.7 -1.4 4.6 99 0.0 W 26 33 14 18 1007.1 1006.6 2.8
23/04:30am 4.6 -2.3 4.5 99 0.0 W 30 41 16 22 1006.9 1006.4 2.8
23/04:00am 4.8 -2.1 4.7 99 0.0 W 30 41 16 22 1006.7 1006.3 2.8
23/03:30am 5.3 -1.1 5.2 99 0.0 W 28 39 15 21 1007.0 1006.5 2.8
23/03:00am 5.9 -0.8 5.8 99 0.0 W 30 37 16 20 1006.9 1006.4 2.8
23/02:30am 6.9 -0.1 6.8 99 0.0 WNW 33 44 18 24 1006.7 1006.3 2.8
23/02:10am 7.1 1.1 7.0 99 0.0 WNW 28 46 15 25 1006.7 1006.3 2.6
23/02:00am 7.3 2.9 7.2 99 0.0 WNW 20 39 11 21 1006.7 1006.3 2.6
23/01:30am 7.4 1.5 7.3 99 0.0 WNW 28 41 15 22 1007.1 1006.6 2.6
23/01:00am 7.9 2.5 7.8 99 0.1 NW 26 43 14 23 1007.1 1006.6 2.4
23/12:30am 8.1 4.0 8.0 99 0.1 NW 19 32 10 17 1007.1 1006.6 2.4
23/12:00am 8.2 3.6 8.1 99 0.1 NW 22 32 12 17 1006.9 1006.4 2.4
 
Date/Time
EDT
Temp
°C
App
Temp
°C
Dew
Point
Rel
Hum
%
Delta-T
°C
Wind Press
QNH
hPa
Press
MSL
hPa
Rain
since 9 am
mm
Dir
 
Spd
km/h
Gust
km/h
Spd
kts
Gust
kts
22/11:30pm 8.8 4.2 8.2 96 0.3 NNW 22 37 12 20 1007.0 1006.5 2.4
22/11:00pm 8.9 4.8 8.5 97 0.2 NNW 20 30 11 16 1006.9 1006.4 2.4
22/10:30pm 8.8 4.6 8.4 97 0.2 NNW 20 33 11 18 1007.0 1006.5 2.4
22/10:00pm 9.1 4.2 8.6 97 0.3 N 24 35 13 19 1006.9 1006.4 2.4
22/09:30pm 9.1 4.3 9.0 99 0.1 N 24 32 13 17 1006.6 1006.2 2.4
22/09:00pm 9.1 3.9 9.0 99 0.1 N 26 32 14 17 1006.3 1005.8 2.4
22/08:30pm 9.6 3.7 9.0 96 0.3 N 30 37 16 20 1006.2 1005.7 2.4
22/08:00pm 9.6 4.2 9.5 99 0.1 N 28 35 15 19 1006.1 1005.6 2.4
22/07:30pm 10.0 4.6 9.5 97 0.3 N 28 41 15 22 1006.0 1005.5 2.4
22/07:00pm 9.9 4.9 9.6 98 0.2 N 26 35 14 19 1006.1 1005.6 2.4
22/06:30pm 9.8 5.2 9.7 99 0.1 N 24 39 13 21 1006.2 1005.7 2.4
22/06:00pm 9.6 4.2 9.5 99 0.1 N 28 35 15 19 1006.3 1005.8 2.4
22/05:30pm 9.2 4.5 9.1 99 0.1 N 24 33 13 18 1006.3 1005.8 2.4
22/05:00pm 8.9 4.8 8.8 99 0.1 N 20 26 11 14 1006.5 1006.1 2.4
22/04:30pm 9.0 5.0 8.9 99 0.1 N 20 32 11 17 1006.6 1006.2 2.4
22/04:00pm 9.0 3.8 8.9 99 0.1 N 26 41 14 22 1006.7 1006.3 2.4
22/03:30pm 8.8 3.2 8.7 99 0.1 N 28 41 15 22 1006.9 1006.4 2.4
22/03:00pm 8.3 1.8 8.2 99 0.1 N 32 43 17 23 1007.5 1007.1 2.4
22/02:30pm 8.5 2.8 8.4 99 0.1 N 28 39 15 21 1007.6 1007.2 1.8
22/02:00pm 8.4 2.3 8.3 99 0.1 N 30 39 16 21 1007.7 1007.3 1.8
22/01:30pm 8.8 3.2 8.7 99 0.1 N 28 37 15 20 1008.2 1007.8 1.6
22/01:00pm 8.6 2.9 8.5 99 0.1 N 28 41 15 22 1008.2 1007.8 1.0
22/12:30pm 8.6 2.9 8.5 99 0.1 N 28 37 15 20 1008.3 1007.9 1.0
22/12:00pm 8.1 2.3 8.0 99 0.1 N 28 41 15 22 1008.4 1008.0 1.0
22/11:30am 7.4 0.7 7.3 99 0.0 N 32 48 17 26 1008.8 1008.3 1.0

Other Formats:

Comma delimited format used in spreadsheet applications
http://www.bom.gov.au/fwo/IDT60801/IDT60801.95952.axf

JavaScript Object Notation format (JSON) in row-major order
http://www.bom.gov.au/fwo/IDT60801/IDT60801.95952.json